createdAt,value
2022-10-23T00:01:27.428Z,12.74
2022-10-23T00:03:56.613Z,12.75
2022-10-23T00:06:24.529Z,12.74
2022-10-23T00:08:51.498Z,12.74
2022-10-23T00:11:22.525Z,12.71
2022-10-23T00:13:50.488Z,12.74
2022-10-23T00:16:17.399Z,12.71
2022-10-23T00:18:45.815Z,12.70
2022-10-23T00:21:15.160Z,12.69
2022-10-23T00:23:42.222Z,12.70
2022-10-23T00:26:11.480Z,12.68
2022-10-23T00:28:38.601Z,12.67
2022-10-23T00:31:06.198Z,12.65
2022-10-23T00:33:33.729Z,12.63
2022-10-23T00:36:00.712Z,12.61
2022-10-23T00:38:27.830Z,12.62
2022-10-23T00:40:54.753Z,12.64
2022-10-23T00:43:28.270Z,12.63
2022-10-23T00:45:55.547Z,12.64
2022-10-23T00:48:22.838Z,12.62
2022-10-23T00:50:50.874Z,12.62
2022-10-23T00:53:19.180Z,12.60
2022-10-23T00:55:48.169Z,12.61
2022-10-23T00:58:17.041Z,12.63
2022-10-23T01:00:55.611Z,12.61
2022-10-23T01:03:28.192Z,12.62
2022-10-23T01:06:03.773Z,12.63
2022-10-23T01:08:35.558Z,12.58
2022-10-23T01:11:08.917Z,12.63
2022-10-23T01:13:39.968Z,12.61
2022-10-23T01:16:30.621Z,12.62
2022-10-23T01:19:03.600Z,12.64
2022-10-23T01:21:56.679Z,12.67
2022-10-23T01:25:09.451Z,12.67
2022-10-23T01:27:41.811Z,12.68
2022-10-23T01:30:15.274Z,12.68
2022-10-23T01:33:32.469Z,12.69
2022-10-23T01:36:03.062Z,12.73
2022-10-23T01:38:38.580Z,12.72
2022-10-23T01:41:18.579Z,12.76
2022-10-23T01:43:50.034Z,12.77
2022-10-23T01:46:17.558Z,12.84
2022-10-23T01:48:51.479Z,12.83
2022-10-23T01:51:19.823Z,12.82
2022-10-23T01:53:49.250Z,12.79
2022-10-23T01:56:23.380Z,12.76
2022-10-23T01:58:52.824Z,12.74
2022-10-23T02:01:22.670Z,12.73
2022-10-23T02:03:52.766Z,12.71
2022-10-23T02:06:20.058Z,12.68
2022-10-23T02:08:47.265Z,12.61
2022-10-23T02:11:20.022Z,12.55
2022-10-23T02:14:24.359Z,12.46
2022-10-23T02:16:53.679Z,12.42
2022-10-23T02:19:43.080Z,12.43
2022-10-23T02:22:19.501Z,12.45
2022-10-23T02:24:51.286Z,12.49
2022-10-23T02:27:41.109Z,12.52
2022-10-23T02:30:13.128Z,12.56
2022-10-23T02:32:44.066Z,12.61
2022-10-23T02:35:13.085Z,12.64
2022-10-23T02:37:40.460Z,12.65
2022-10-23T02:40:09.180Z,12.67
2022-10-23T02:42:47.980Z,12.70
2022-10-23T02:45:22.482Z,12.71
2022-10-23T02:47:52.460Z,12.74
2022-10-23T02:50:46.198Z,12.75
2022-10-23T02:53:33.861Z,12.76
2022-10-23T02:56:27.749Z,12.73
2022-10-23T02:59:14.819Z,12.64
2022-10-23T03:02:20.306Z,12.61
2022-10-23T03:04:47.668Z,12.65
2022-10-23T03:07:15.270Z,12.67
2022-10-23T03:09:42.928Z,12.70
2022-10-23T03:12:09.922Z,12.73
2022-10-23T03:14:37.207Z,12.77
2022-10-23T03:17:05.361Z,12.79
2022-10-23T03:19:32.288Z,12.82
2022-10-23T03:21:59.338Z,12.85
2022-10-23T03:24:26.269Z,12.88
2022-10-23T03:26:53.281Z,12.89
2022-10-23T03:29:29.522Z,12.90
2022-10-23T03:31:56.611Z,12.92
2022-10-23T03:34:23.681Z,12.93
2022-10-23T03:36:53.188Z,12.95
2022-10-23T03:39:21.258Z,12.95
2022-10-23T03:41:48.521Z,12.94
2022-10-23T03:44:17.600Z,12.93
2022-10-23T03:46:45.800Z,12.92
2022-10-23T03:49:12.979Z,12.91
2022-10-23T03:51:44.198Z,12.92
2022-10-23T03:54:11.579Z,12.92
2022-10-23T03:56:38.641Z,12.93
2022-10-23T03:59:07.818Z,12.95
2022-10-23T04:01:34.995Z,12.96
2022-10-23T04:04:02.109Z,12.98
2022-10-23T04:06:29.578Z,12.99
2022-10-23T04:08:58.388Z,13.00
2022-10-23T04:11:25.564Z,13.03
2022-10-23T04:13:52.633Z,13.04
2022-10-23T04:16:19.778Z,13.06
2022-10-23T04:18:46.836Z,13.07
2022-10-23T04:21:13.977Z,13.07
2022-10-23T04:23:40.982Z,13.07
2022-10-23T04:26:26.278Z,13.05
2022-10-23T04:28:53.453Z,13.06
2022-10-23T04:31:20.615Z,13.04
2022-10-23T04:33:47.710Z,13.01
2022-10-23T04:36:34.887Z,13.00
2022-10-23T04:39:10.309Z,13.00
2022-10-23T04:41:38.979Z,13.00
2022-10-23T04:44:06.609Z,13.01
2022-10-23T04:46:37.509Z,13.02
2022-10-23T04:49:05.191Z,13.02
2022-10-23T04:51:50.649Z,13.03
2022-10-23T04:54:43.986Z,13.02
2022-10-23T04:57:37.270Z,13.00
2022-10-23T05:00:09.910Z,12.98
2022-10-23T05:03:03.789Z,12.97
2022-10-23T05:05:36.380Z,12.89
2022-10-23T05:08:23.178Z,12.79
2022-10-23T05:11:08.680Z,12.71
2022-10-23T05:13:41.499Z,12.69
2022-10-23T05:16:08.910Z,12.69
2022-10-23T05:18:41.223Z,12.69
2022-10-23T05:21:11.959Z,12.73
2022-10-23T05:23:41.845Z,12.76
2022-10-23T05:26:09.475Z,12.80
2022-10-23T05:28:38.108Z,12.81
2022-10-23T05:31:06.513Z,12.85
2022-10-23T05:33:37.169Z,12.87
2022-10-23T05:36:05.763Z,12.89
2022-10-23T05:38:34.986Z,12.91
2022-10-23T05:41:09.725Z,12.92
2022-10-23T05:43:37.747Z,12.94
2022-10-23T05:46:27.945Z,12.95
2022-10-23T05:49:13.623Z,12.97
2022-10-23T05:51:59.487Z,12.99
2022-10-23T05:54:40.881Z,13.02
2022-10-23T05:57:39.935Z,13.05
2022-10-23T06:00:11.367Z,13.08
2022-10-23T06:02:41.539Z,13.11
2022-10-23T06:05:40.820Z,13.17
2022-10-23T06:08:32.026Z,13.21
2022-10-23T06:10:59.260Z,13.23
2022-10-23T06:13:26.324Z,13.25
2022-10-23T06:15:53.419Z,13.26
2022-10-23T06:18:24.164Z,13.29
2022-10-23T06:20:55.909Z,13.31
2022-10-23T06:23:27.041Z,13.33
2022-10-23T06:26:15.309Z,13.36
2022-10-23T06:29:08.549Z,13.40
2022-10-23T06:31:36.411Z,13.40
2022-10-23T06:34:04.526Z,13.42
2022-10-23T06:36:31.973Z,13.45
2022-10-23T06:39:07.255Z,13.47
2022-10-23T06:41:57.255Z,13.53
2022-10-23T06:44:50.390Z,13.58
2022-10-23T06:47:30.450Z,13.62
2022-10-23T06:50:16.170Z,13.63
2022-10-23T06:52:47.442Z,13.63
2022-10-23T06:55:17.638Z,13.65
2022-10-23T06:57:45.405Z,13.65
2022-10-23T07:00:13.660Z,13.64
2022-10-23T07:02:51.042Z,13.66
2022-10-23T07:05:19.032Z,13.66
2022-10-23T07:07:46.243Z,13.69
2022-10-23T07:10:18.853Z,13.70
2022-10-23T07:12:52.249Z,13.72
2022-10-23T07:15:38.609Z,13.75
2022-10-23T07:18:14.653Z,13.74
2022-10-23T07:21:01.676Z,13.77
2022-10-23T07:23:30.910Z,13.77
2022-10-23T07:26:04.482Z,13.79
2022-10-23T07:28:31.757Z,13.83
2022-10-23T07:31:00.086Z,13.85
2022-10-23T07:33:43.744Z,13.89
2022-10-23T07:36:16.979Z,13.88
2022-10-23T07:38:44.716Z,13.88
2022-10-23T07:41:12.616Z,13.90
2022-10-23T07:43:39.865Z,13.93
2022-10-23T07:46:09.849Z,13.97
2022-10-23T07:48:39.559Z,14.01
2022-10-23T07:51:11.488Z,14.03
2022-10-23T07:53:43.381Z,14.06
2022-10-23T07:56:31.947Z,14.14
2022-10-23T07:59:19.194Z,14.20
2022-10-23T08:01:56.812Z,14.21
2022-10-23T08:04:34.470Z,14.22
2022-10-23T08:07:14.560Z,14.25
2022-10-23T08:09:44.780Z,14.26
2022-10-23T08:12:12.309Z,14.25
2022-10-23T08:14:39.910Z,14.23
2022-10-23T08:17:09.955Z,14.24
2022-10-23T08:19:56.109Z,14.29
2022-10-23T08:22:26.162Z,14.25
2022-10-23T08:24:53.133Z,14.28
2022-10-23T08:27:20.120Z,14.32
2022-10-23T08:29:48.440Z,14.45
2022-10-23T08:32:15.392Z,14.60
2022-10-23T08:34:54.309Z,14.64
2022-10-23T08:37:24.103Z,14.62
2022-10-23T08:39:53.247Z,14.55
2022-10-23T08:42:42.472Z,14.49
2022-10-23T08:45:29.073Z,14.43
2022-10-23T08:48:17.139Z,14.39
2022-10-23T08:51:11.932Z,14.34
2022-10-23T08:53:50.549Z,14.30
2022-10-23T08:56:23.287Z,14.29
2022-10-23T08:59:00.640Z,14.29
2022-10-23T09:01:50.344Z,14.25
2022-10-23T09:04:17.516Z,14.21
2022-10-23T09:06:52.217Z,14.20
2022-10-23T09:09:56.392Z,14.24
2022-10-23T09:12:25.187Z,14.27
2022-10-23T09:15:10.500Z,14.29
2022-10-23T09:17:42.868Z,14.31
2022-10-23T09:20:19.342Z,14.35
2022-10-23T09:22:48.137Z,14.42
2022-10-23T09:25:21.432Z,14.44
2022-10-23T09:27:55.710Z,14.45
2022-10-23T09:30:35.601Z,14.45
2022-10-23T09:33:21.938Z,14.48
2022-10-23T09:36:05.630Z,14.56
2022-10-23T09:38:52.445Z,14.62
2022-10-23T09:41:54.135Z,14.69
2022-10-23T09:44:32.331Z,14.66
2022-10-23T09:47:13.321Z,14.64
2022-10-23T09:49:48.029Z,14.60
2022-10-23T09:52:16.700Z,14.58
2022-10-23T09:55:02.853Z,14.56
2022-10-23T09:57:43.315Z,14.58
2022-10-23T10:00:22.670Z,14.55
2022-10-23T10:02:55.620Z,14.54
2022-10-23T10:05:42.352Z,14.48
2022-10-23T10:08:23.855Z,14.44
2022-10-23T10:11:00.247Z,14.41
2022-10-23T10:13:41.924Z,14.39
2022-10-23T10:16:37.373Z,14.40
2022-10-23T10:19:29.877Z,14.37
2022-10-23T10:22:16.931Z,14.35
2022-10-23T10:24:55.059Z,14.30
2022-10-23T10:27:31.550Z,14.28
2022-10-23T10:30:10.485Z,14.26
2022-10-23T10:32:43.790Z,14.23
2022-10-23T10:35:22.917Z,14.16
2022-10-23T10:38:30.404Z,14.14
2022-10-23T10:41:03.549Z,14.08
2022-10-23T10:43:55.351Z,14.04
2022-10-23T10:46:38.702Z,14.00
2022-10-23T10:49:30.828Z,13.98
2022-10-23T10:52:33.940Z,13.97
2022-10-23T10:55:19.880Z,13.98
2022-10-23T10:57:59.241Z,14.00
2022-10-23T11:00:29.228Z,14.09
2022-10-23T11:03:02.947Z,14.17
2022-10-23T11:05:33.362Z,14.28
2022-10-23T11:08:04.580Z,14.31
2022-10-23T11:10:33.153Z,14.37
2022-10-23T11:13:00.151Z,14.38
2022-10-23T11:15:37.499Z,14.41
2022-10-23T11:18:07.353Z,14.46
2022-10-23T11:20:50.888Z,14.50
2022-10-23T11:27:02.104Z,14.58
2022-10-23T11:29:58.979Z,14.73
2022-10-23T11:35:40.051Z,14.98
2022-10-23T11:38:19.101Z,15.10
2022-10-23T11:43:47.120Z,15.07
2022-10-23T11:46:29.754Z,15.04
2022-10-23T11:48:57.973Z,14.91
2022-10-23T11:51:35.232Z,14.85
2022-10-23T11:54:12.381Z,14.71
2022-10-23T11:56:55.249Z,14.66
2022-10-23T11:59:31.936Z,14.66
2022-10-23T12:02:09.740Z,14.70
2022-10-23T12:04:51.368Z,14.82
2022-10-23T12:07:28.856Z,14.83
2022-10-23T12:09:57.320Z,14.88
2022-10-23T12:12:40.698Z,14.97
2022-10-23T12:15:11.921Z,14.99
2022-10-23T12:17:40.322Z,15.00
2022-10-23T12:20:13.790Z,14.95
2022-10-23T12:23:11.372Z,14.89
2022-10-23T12:25:56.879Z,14.79
2022-10-23T12:28:35.407Z,14.77
2022-10-23T12:31:15.830Z,14.71
2022-10-23T12:33:46.181Z,14.68
2022-10-23T12:36:50.839Z,14.67
2022-10-23T12:39:36.399Z,14.72
2022-10-23T12:42:04.307Z,14.70
2022-10-23T12:44:31.620Z,14.77
2022-10-23T12:47:01.707Z,14.84
2022-10-23T12:49:32.153Z,14.87
2022-10-23T12:52:06.694Z,14.85
2022-10-23T12:54:39.098Z,14.84
2022-10-23T12:57:22.112Z,14.82
2022-10-23T12:59:50.947Z,14.81
2022-10-23T13:02:22.333Z,14.74
2022-10-23T13:04:50.373Z,14.68
2022-10-23T13:07:19.819Z,14.62
2022-10-23T13:09:47.023Z,14.55
2022-10-23T13:12:29.732Z,14.53
2022-10-23T13:14:59.126Z,14.50
2022-10-23T13:17:46.262Z,14.49
2022-10-23T13:20:51.856Z,14.53
2022-10-23T13:23:19.910Z,14.59
2022-10-23T13:26:25.928Z,14.61
2022-10-23T13:28:52.966Z,14.71
2022-10-23T13:31:26.519Z,14.78
2022-10-23T13:34:00.539Z,14.92
2022-10-23T13:36:29.870Z,14.96
2022-10-23T13:39:02.324Z,14.93
2022-10-23T13:41:36.210Z,14.89
2022-10-23T13:44:03.823Z,14.85
2022-10-23T13:46:30.919Z,14.83
2022-10-23T13:48:57.909Z,14.80
2022-10-23T13:51:29.903Z,14.73
2022-10-23T13:53:58.240Z,14.65
2022-10-23T13:56:26.774Z,14.62
2022-10-23T13:58:54.549Z,14.61
2022-10-23T14:01:26.735Z,14.60
2022-10-23T14:03:54.618Z,14.55
2022-10-23T14:06:21.652Z,14.53
2022-10-23T14:08:48.620Z,14.52
2022-10-23T14:11:17.971Z,14.47
2022-10-23T14:13:45.598Z,14.46
2022-10-23T14:16:14.200Z,14.43
2022-10-23T14:18:41.468Z,14.40
2022-10-23T14:21:10.549Z,14.37
2022-10-23T14:23:37.665Z,14.32
2022-10-23T14:26:07.018Z,14.25
2022-10-23T14:28:34.455Z,14.23
2022-10-23T14:31:08.999Z,14.19
2022-10-23T14:33:36.051Z,14.16
2022-10-23T14:36:03.323Z,14.09
2022-10-23T14:38:30.369Z,14.05
2022-10-23T14:40:57.399Z,14.01
2022-10-23T14:43:25.212Z,13.94
2022-10-23T14:45:52.641Z,13.85
2022-10-23T14:48:20.068Z,13.74
2022-10-23T14:50:49.003Z,13.64
2022-10-23T14:53:16.377Z,13.57
2022-10-23T14:55:43.310Z,13.48
2022-10-23T14:58:10.394Z,13.39
2022-10-23T15:00:37.329Z,13.33
2022-10-23T15:03:04.346Z,13.29
2022-10-23T15:05:31.436Z,13.22
2022-10-23T15:07:59.132Z,13.11
2022-10-23T15:10:26.131Z,13.01
2022-10-23T15:12:53.152Z,12.88
2022-10-23T15:15:20.163Z,12.75
2022-10-23T15:17:47.231Z,12.58
2022-10-23T15:20:14.201Z,12.44
2022-10-23T15:22:41.386Z,12.34
2022-10-23T15:25:10.579Z,12.32
2022-10-23T15:27:39.206Z,12.28
2022-10-23T15:30:06.767Z,12.21
2022-10-23T15:32:33.692Z,12.11
2022-10-23T15:35:01.012Z,12.01
2022-10-23T15:37:28.083Z,11.92
2022-10-23T15:39:59.726Z,11.79
2022-10-23T15:42:29.111Z,11.76
2022-10-23T15:44:56.086Z,11.73
2022-10-23T15:47:23.090Z,11.71
2022-10-23T15:49:49.983Z,11.68
2022-10-23T15:52:35.369Z,11.61
2022-10-23T15:55:21.359Z,11.58
2022-10-23T15:57:48.343Z,11.53
2022-10-23T16:00:18.307Z,11.48
2022-10-23T16:02:47.789Z,11.42
2022-10-23T16:05:17.433Z,11.38
2022-10-23T16:07:44.412Z,11.35
2022-10-23T16:10:11.331Z,11.28
2022-10-23T16:12:38.483Z,11.24
2022-10-23T16:15:08.092Z,11.20
2022-10-23T16:17:35.208Z,11.14
2022-10-23T16:20:02.176Z,11.11
2022-10-23T16:22:29.138Z,11.06
2022-10-23T16:24:56.317Z,10.98
2022-10-23T16:27:23.297Z,10.89
2022-10-23T16:29:50.500Z,10.78
2022-10-23T16:32:18.340Z,10.68
2022-10-23T16:34:45.933Z,10.50
2022-10-23T16:37:12.847Z,10.39
2022-10-23T16:40:06.221Z,10.30
2022-10-23T16:42:51.500Z,10.19
2022-10-23T16:45:39.462Z,10.14
2022-10-23T16:48:06.441Z,10.10
2022-10-23T16:50:33.592Z,10.05
2022-10-23T16:53:00.806Z,9.96
2022-10-23T16:55:27.747Z,9.90
2022-10-23T16:57:54.764Z,9.86
2022-10-23T17:00:22.743Z,9.84
2022-10-23T17:02:49.865Z,9.81
2022-10-23T17:05:17.088Z,9.78
2022-10-23T17:07:44.389Z,9.75
2022-10-23T17:10:11.532Z,9.72
2022-10-23T17:12:38.463Z,9.68
2022-10-23T17:15:06.023Z,9.62
2022-10-23T17:17:33.046Z,9.54
2022-10-23T17:20:00.054Z,9.48
2022-10-23T17:22:27.842Z,9.46
2022-10-23T17:24:54.977Z,9.43
2022-10-23T17:27:22.214Z,9.40
2022-10-23T17:29:49.167Z,9.35
2022-10-23T17:32:16.317Z,9.30
2022-10-23T17:34:43.334Z,9.26
2022-10-23T17:37:13.286Z,9.25
2022-10-23T17:39:41.416Z,9.22
2022-10-23T17:42:08.676Z,9.15
2022-10-23T17:44:36.351Z,9.09
2022-10-23T17:47:03.557Z,9.01
2022-10-23T17:49:30.647Z,8.95
2022-10-23T17:51:58.243Z,8.88
2022-10-23T17:54:26.846Z,8.82
2022-10-23T17:56:54.471Z,8.77
2022-10-23T17:59:21.744Z,8.71
2022-10-23T18:01:49.927Z,8.66
2022-10-23T18:04:19.034Z,8.66
2022-10-23T18:06:49.240Z,8.64
2022-10-23T18:09:17.203Z,8.64
2022-10-23T18:11:48.884Z,8.62
2022-10-23T18:14:19.966Z,8.64
2022-10-23T18:16:47.670Z,8.68
2022-10-23T18:19:16.101Z,8.71
2022-10-23T18:21:43.287Z,8.71
2022-10-23T18:24:10.605Z,8.65
2022-10-23T18:26:39.399Z,8.61
2022-10-23T18:29:10.345Z,8.61
2022-10-23T18:31:38.011Z,8.61
2022-10-23T18:34:33.085Z,8.60
2022-10-23T18:37:01.167Z,8.62
2022-10-23T18:39:29.279Z,8.62
2022-10-23T18:41:58.225Z,8.61
2022-10-23T18:44:27.122Z,8.62
2022-10-23T18:46:57.065Z,8.61
2022-10-23T18:49:24.550Z,8.55
2022-10-23T18:51:52.006Z,8.50
2022-10-23T18:54:21.148Z,8.46
2022-10-23T18:56:48.859Z,8.43
2022-10-23T18:59:18.963Z,8.41
2022-10-23T19:01:47.585Z,8.40
2022-10-23T19:04:18.094Z,8.40
2022-10-23T19:06:46.739Z,8.38
2022-10-23T19:09:15.206Z,8.32
2022-10-23T19:11:43.334Z,8.32
2022-10-23T19:14:10.371Z,8.32
2022-10-23T19:17:03.051Z,8.29
2022-10-23T19:19:36.413Z,8.28
2022-10-23T19:22:04.309Z,8.27
2022-10-23T19:24:39.497Z,8.25
2022-10-23T19:27:07.506Z,8.23
2022-10-23T19:29:39.309Z,8.22
2022-10-23T19:32:06.877Z,8.22
2022-10-23T19:34:33.804Z,8.21
2022-10-23T19:37:01.295Z,8.18
2022-10-23T19:39:28.398Z,8.16
2022-10-23T19:41:55.640Z,8.17
2022-10-23T19:44:22.897Z,8.17
2022-10-23T19:46:50.107Z,8.15
2022-10-23T19:49:18.171Z,8.10
2022-10-23T19:51:50.902Z,8.07
2022-10-23T19:54:20.372Z,8.07
2022-10-23T19:56:47.966Z,8.07
2022-10-23T19:59:16.642Z,8.01
2022-10-23T20:01:46.429Z,7.96
2022-10-23T20:04:19.273Z,7.92
2022-10-23T20:06:47.061Z,7.89
2022-10-23T20:09:14.296Z,7.88
2022-10-23T20:11:43.557Z,7.87
2022-10-23T20:14:10.588Z,7.84
2022-10-23T20:16:38.871Z,7.78
2022-10-23T20:19:10.563Z,7.72
2022-10-23T20:21:39.317Z,7.64
2022-10-23T20:24:07.023Z,7.57
2022-10-23T20:26:34.551Z,7.52
2022-10-23T20:29:01.626Z,7.47
2022-10-23T20:31:28.844Z,7.44
2022-10-23T20:33:56.352Z,7.42
2022-10-23T20:36:46.435Z,7.40
2022-10-23T20:39:20.307Z,7.38
2022-10-23T20:41:48.286Z,7.38
2022-10-23T20:46:50.092Z,7.40
2022-10-23T20:49:18.700Z,7.37
2022-10-23T20:51:46.139Z,7.37
2022-10-23T20:54:13.277Z,7.36
2022-10-23T20:56:40.311Z,7.35
2022-10-23T20:59:15.243Z,7.36
2022-10-23T21:01:45.198Z,7.40
2022-10-23T21:04:13.896Z,7.41
2022-10-23T21:06:51.852Z,7.42
2022-10-23T21:09:25.150Z,7.47
2022-10-23T21:11:52.249Z,7.58
2022-10-23T21:14:19.356Z,7.64
2022-10-23T21:16:46.736Z,7.67
2022-10-23T21:19:15.832Z,7.70
2022-10-23T21:21:43.979Z,7.68
2022-10-23T21:24:14.722Z,7.69
2022-10-23T21:26:42.433Z,7.73
2022-10-23T21:29:18.994Z,7.74
2022-10-23T21:31:55.054Z,7.79
2022-10-23T21:34:23.449Z,7.86
2022-10-23T21:39:37.633Z,8.02
2022-10-23T21:42:04.797Z,8.07
2022-10-23T21:44:31.790Z,8.09
2022-10-23T21:46:58.661Z,8.17
2022-10-23T21:49:25.711Z,8.25
2022-10-23T21:51:53.278Z,8.30
2022-10-23T21:54:20.906Z,8.27
2022-10-23T21:56:50.641Z,8.25
2022-10-23T21:59:20.669Z,8.31
2022-10-23T22:01:49.074Z,8.38
2022-10-23T22:04:17.837Z,8.43
2022-10-23T22:06:45.670Z,8.50
2022-10-23T22:09:15.730Z,8.53
2022-10-23T22:11:43.077Z,8.54
2022-10-23T22:14:10.198Z,8.52
2022-10-23T22:16:37.454Z,8.54
2022-10-23T22:19:04.541Z,8.51
2022-10-23T22:21:32.090Z,8.51
2022-10-23T22:24:00.177Z,8.52
2022-10-23T22:26:38.763Z,8.54
2022-10-23T22:29:14.739Z,8.60
2022-10-23T22:31:44.251Z,8.62
2022-10-23T22:34:25.339Z,8.57
2022-10-23T22:37:04.467Z,8.48
2022-10-23T22:39:31.393Z,8.44
2022-10-23T22:41:58.460Z,8.49
2022-10-23T22:44:25.364Z,8.49
2022-10-23T22:46:52.422Z,8.49
2022-10-23T22:49:19.466Z,8.50
2022-10-23T22:51:46.639Z,8.53
2022-10-23T22:54:13.559Z,8.53
2022-10-23T22:56:41.820Z,8.53
2022-10-23T22:59:09.098Z,8.51
2022-10-23T23:01:39.491Z,8.34
2022-10-23T23:04:19.492Z,8.22
2022-10-23T23:06:54.197Z,8.16
2022-10-23T23:09:21.105Z,8.16
2022-10-23T23:11:52.547Z,8.16
2022-10-23T23:14:24.086Z,8.17
2022-10-23T23:16:53.071Z,8.20
2022-10-23T23:19:20.287Z,8.22
2022-10-23T23:21:47.432Z,8.23
2022-10-23T23:24:14.472Z,8.23
2022-10-23T23:26:41.477Z,8.22
2022-10-23T23:29:08.698Z,8.14
2022-10-23T23:31:35.618Z,8.08
2022-10-23T23:34:02.752Z,8.02
2022-10-23T23:36:29.837Z,7.96
2022-10-23T23:38:57.943Z,7.90
2022-10-23T23:41:25.764Z,7.93
2022-10-23T23:43:54.182Z,7.95
2022-10-23T23:46:21.129Z,7.99
2022-10-23T23:48:49.562Z,7.97
2022-10-23T23:51:18.317Z,7.99
2022-10-23T23:53:45.370Z,8.01
2022-10-23T23:56:12.378Z,8.03
2022-10-23T23:58:39.446Z,7.96
